sensor_id;sensor_type;location;lat;lon;timestamp;pressure;altitude;pressure_sealevel;temperature;humidity
73063;BME280;61230;46.328;19.972;2023-04-19T00:01:01;100443.06;;;10.06;79.19
73063;BME280;61230;46.328;19.972;2023-04-19T00:03:29;100449.44;;;10.04;79.65
73063;BME280;61230;46.328;19.972;2023-04-19T00:05:58;100488.78;;;10.24;80.20
73063;BME280;61230;46.328;19.972;2023-04-19T00:08:25;100496.53;;;10.26;80.27
73063;BME280;61230;46.328;19.972;2023-04-19T00:10:53;100489.44;;;10.17;80.85
73063;BME280;61230;46.328;19.972;2023-04-19T00:13:27;100479.72;;;10.08;80.99
73063;BME280;61230;46.328;19.972;2023-04-19T00:15:55;100481.94;;;10.12;80.81
73063;BME280;61230;46.328;19.972;2023-04-19T00:18:23;100490.09;;;10.09;80.70
73063;BME280;61230;46.328;19.972;2023-04-19T00:20:51;100480.69;;;10.07;81.18
73063;BME280;61230;46.328;19.972;2023-04-19T00:23:18;100476.66;;;10.03;81.45
73063;BME280;61230;46.328;19.972;2023-04-19T00:25:47;100475.72;;;10.04;80.94
73063;BME280;61230;46.328;19.972;2023-04-19T00:28:15;100462.16;;;9.99;81.22
73063;BME280;61230;46.328;19.972;2023-04-19T00:30:43;100480.41;;;10.00;81.77
73063;BME280;61230;46.328;19.972;2023-04-19T00:33:10;100473.19;;;10.02;81.63
73063;BME280;61230;46.328;19.972;2023-04-19T00:35:40;100418.78;;;9.74;82.39
73063;BME280;61230;46.328;19.972;2023-04-19T00:38:09;100428.19;;;9.76;81.99
73063;BME280;61230;46.328;19.972;2023-04-19T00:40:36;100474.72;;;10.05;81.38
73063;BME280;61230;46.328;19.972;2023-04-19T00:43:04;100475.56;;;10.05;81.43
73063;BME280;61230;46.328;19.972;2023-04-19T00:45:34;100473.91;;;10.04;81.97
73063;BME280;61230;46.328;19.972;2023-04-19T00:48:02;100466.03;;;10.04;83.19
73063;BME280;61230;46.328;19.972;2023-04-19T00:50:30;100467.13;;;10.02;82.86
73063;BME280;61230;46.328;19.972;2023-04-19T00:52:58;100414.38;;;9.74;82.48
73063;BME280;61230;46.328;19.972;2023-04-19T00:55:25;100458.25;;;10.03;82.83
73063;BME280;61230;46.328;19.972;2023-04-19T00:57:53;100461.88;;;10.02;82.64
73063;BME280;61230;46.328;19.972;2023-04-19T01:00:21;100416.72;;;9.77;82.17
73063;BME280;61230;46.328;19.972;2023-04-19T01:02:50;100461.47;;;10.06;81.96
73063;BME280;61230;46.328;19.972;2023-04-19T01:05:18;100455.38;;;10.06;82.75
73063;BME280;61230;46.328;19.972;2023-04-19T01:07:46;100452.75;;;10.06;82.31
73063;BME280;61230;46.328;19.972;2023-04-19T01:10:14;100450.78;;;10.08;82.79
73063;BME280;61230;46.328;19.972;2023-04-19T01:12:41;100442.38;;;10.04;83.11
73063;BME280;61230;46.328;19.972;2023-04-19T01:15:10;100447.34;;;10.07;82.89
73063;BME280;61230;46.328;19.972;2023-04-19T01:17:38;100439.31;;;10.09;82.50
73063;BME280;61230;46.328;19.972;2023-04-19T01:20:06;100437.37;;;10.11;83.16
73063;BME280;61230;46.328;19.972;2023-04-19T01:22:34;100439.31;;;10.09;83.62
73063;BME280;61230;46.328;19.972;2023-04-19T01:25:04;100436.69;;;10.09;83.19
73063;BME280;61230;46.328;19.972;2023-04-19T01:27:33;100435.84;;;10.08;82.95
73063;BME280;61230;46.328;19.972;2023-04-19T01:30:01;100389.50;;;9.78;82.88
73063;BME280;61230;46.328;19.972;2023-04-19T01:32:29;100431.28;;;10.10;82.40
73063;BME280;61230;46.328;19.972;2023-04-19T01:34:57;100424.38;;;10.09;83.04
73063;BME280;61230;46.328;19.972;2023-04-19T01:37:24;100427.97;;;10.08;83.36
73063;BME280;61230;46.328;19.972;2023-04-19T01:39:52;100419.53;;;10.05;83.56
73063;BME280;61230;46.328;19.972;2023-04-19T01:42:20;100423.13;;;10.04;83.51
73063;BME280;61230;46.328;19.972;2023-04-19T01:44:47;100416.87;;;10.05;83.45
73063;BME280;61230;46.328;19.972;2023-04-19T01:47:15;100418.16;;;10.01;84.11
73063;BME280;61230;46.328;19.972;2023-04-19T01:49:43;100420.78;;;10.01;84.53
73063;BME280;61230;46.328;19.972;2023-04-19T01:52:11;100372.59;;;9.71;84.27
73063;BME280;61230;46.328;19.972;2023-04-19T01:54:38;100417.47;;;9.99;84.13
73063;BME280;61230;46.328;19.972;2023-04-19T01:57:06;100420.91;;;9.99;84.07
73063;BME280;61230;46.328;19.972;2023-04-19T01:59:34;100412.06;;;10.00;83.60
73063;BME280;61230;46.328;19.972;2023-04-19T02:02:05;100412.63;;;10.04;83.50
73063;BME280;61230;46.328;19.972;2023-04-19T02:04:33;100409.00;;;10.05;83.27
73063;BME280;61230;46.328;19.972;2023-04-19T02:07:01;100366.25;;;9.74;83.20
73063;BME280;61230;46.328;19.972;2023-04-19T02:09:28;100407.09;;;10.07;83.31
73063;BME280;61230;46.328;19.972;2023-04-19T02:11:56;100410.00;;;10.04;83.09
73063;BME280;61230;46.328;19.972;2023-04-19T02:14:24;100405.41;;;10.06;83.04
73063;BME280;61230;46.328;19.972;2023-04-19T02:16:53;100396.97;;;10.02;83.05
73063;BME280;61230;46.328;19.972;2023-04-19T02:19:21;100397.53;;;10.06;83.50
73063;BME280;61230;46.328;19.972;2023-04-19T02:21:48;100400.72;;;10.09;83.58
73063;BME280;61230;46.328;19.972;2023-04-19T02:24:16;100398.78;;;10.02;84.18
73063;BME280;61230;46.328;19.972;2023-04-19T02:26:44;100404.19;;;10.00;82.98
73063;BME280;61230;46.328;19.972;2023-04-19T02:29:14;100355.87;;;9.72;82.94
73063;BME280;61230;46.328;19.972;2023-04-19T02:31:44;100399.47;;;10.04;83.20
73063;BME280;61230;46.328;19.972;2023-04-19T02:34:13;100400.59;;;10.01;82.87
73063;BME280;61230;46.328;19.972;2023-04-19T02:36:40;100404.59;;;10.05;82.63
73063;BME280;61230;46.328;19.972;2023-04-19T02:39:08;100408.59;;;10.00;82.96
73063;BME280;61230;46.328;19.972;2023-04-19T02:41:37;100395.34;;;10.01;82.78
73063;BME280;61230;46.328;19.972;2023-04-19T02:44:05;100400.84;;;9.98;83.01
73063;BME280;61230;46.328;19.972;2023-04-19T02:46:33;100395.44;;;10.00;82.52
73063;BME280;61230;46.328;19.972;2023-04-19T02:49:01;100389.34;;;9.99;83.01
73063;BME280;61230;46.328;19.972;2023-04-19T02:51:30;100388.81;;;9.96;82.71
73063;BME280;61230;46.328;19.972;2023-04-19T02:53:57;100392.56;;;9.93;82.85
73063;BME280;61230;46.328;19.972;2023-04-19T02:56:25;100390.06;;;9.92;83.62
73063;BME280;61230;46.328;19.972;2023-04-19T02:58:53;100339.41;;;9.61;83.74
73063;BME280;61230;46.328;19.972;2023-04-19T03:01:21;100383.41;;;9.88;83.36
73063;BME280;61230;46.328;19.972;2023-04-19T03:03:49;100355.31;;;9.69;82.77
73063;BME280;61230;46.328;19.972;2023-04-19T03:06:17;100380.34;;;9.82;83.89
73063;BME280;61230;46.328;19.972;2023-04-19T03:08:45;100379.94;;;9.77;84.07
73063;BME280;61230;46.328;19.972;2023-04-19T03:11:15;100325.72;;;9.48;83.68
73063;BME280;61230;46.328;19.972;2023-04-19T03:13:43;100327.06;;;9.42;84.44
73063;BME280;61230;46.328;19.972;2023-04-19T03:16:11;100327.38;;;9.39;84.00
73063;BME280;61230;46.328;19.972;2023-04-19T03:18:39;100379.37;;;9.64;84.41
73063;BME280;61230;46.328;19.972;2023-04-19T03:21:07;100373.56;;;9.61;84.30
73063;BME280;61230;46.328;19.972;2023-04-19T03:23:37;100371.06;;;9.59;84.45
73063;BME280;61230;46.328;19.972;2023-04-19T03:26:05;100366.91;;;9.57;85.07
73063;BME280;61230;46.328;19.972;2023-04-19T03:28:33;100367.59;;;9.49;85.43
73063;BME280;61230;46.328;19.972;2023-04-19T03:31:02;100360.41;;;9.42;85.55
73063;BME280;61230;46.328;19.972;2023-04-19T03:33:30;100364.97;;;9.49;85.08
73063;BME280;61230;46.328;19.972;2023-04-19T03:35:58;100362.59;;;9.46;85.09
73063;BME280;61230;46.328;19.972;2023-04-19T03:38:25;100365.22;;;9.46;85.58
73063;BME280;61230;46.328;19.972;2023-04-19T03:40:53;100362.91;;;9.53;85.73
73063;BME280;61230;46.328;19.972;2023-04-19T03:43:22;100361.81;;;9.55;85.30
73063;BME280;61230;46.328;19.972;2023-04-19T03:45:53;100372.03;;;9.58;85.83
73063;BME280;61230;46.328;19.972;2023-04-19T03:48:21;100366.37;;;9.63;85.23
73063;BME280;61230;46.328;19.972;2023-04-19T03:50:49;100365.41;;;9.64;85.15
73063;BME280;61230;46.328;19.972;2023-04-19T03:53:17;100365.16;;;9.67;85.44
73063;BME280;61230;46.328;19.972;2023-04-19T03:55:45;100369.13;;;9.71;85.64
73063;BME280;61230;46.328;19.972;2023-04-19T03:58:13;100365.41;;;9.73;85.77
73063;BME280;61230;46.328;19.972;2023-04-19T04:00:42;100374.69;;;9.77;85.07
73063;BME280;61230;46.328;19.972;2023-04-19T04:03:10;100321.28;;;9.48;84.38
73063;BME280;61230;46.328;19.972;2023-04-19T04:05:38;100378.72;;;9.81;84.30
73063;BME280;61230;46.328;19.972;2023-04-19T04:08:06;100369.00;;;9.82;84.44
73063;BME280;61230;46.328;19.972;2023-04-19T04:10:34;100376.50;;;9.87;84.37
73063;BME280;61230;46.328;19.972;2023-04-19T04:13:01;100372.34;;;9.84;84.64
73063;BME280;61230;46.328;19.972;2023-04-19T04:15:29;100375.41;;;9.89;84.80
73063;BME280;61230;46.328;19.972;2023-04-19T04:17:58;100370.13;;;9.89;85.00
73063;BME280;61230;46.328;19.972;2023-04-19T04:20:26;100322.81;;;9.60;85.00
73063;BME280;61230;46.328;19.972;2023-04-19T04:22:54;100383.28;;;9.89;84.71
73063;BME280;61230;46.328;19.972;2023-04-19T04:25:22;100377.75;;;9.92;85.06
73063;BME280;61230;46.328;19.972;2023-04-19T04:27:50;100374.84;;;9.95;85.81
73063;BME280;61230;46.328;19.972;2023-04-19T04:30:19;100381.91;;;9.95;87.67
73063;BME280;61230;46.328;19.972;2023-04-19T04:32:47;100349.25;;;9.78;86.25
73063;BME280;61230;46.328;19.972;2023-04-19T04:35:17;100382.59;;;9.97;86.08
73063;BME280;61230;46.328;19.972;2023-04-19T04:37:46;100377.31;;;9.97;85.89
73063;BME280;61230;46.328;19.972;2023-04-19T04:40:15;100379.94;;;9.97;86.14
73063;BME280;61230;46.328;19.972;2023-04-19T04:42:43;100383.16;;;10.00;86.01
73063;BME280;61230;46.328;19.972;2023-04-19T04:45:12;100383.03;;;10.02;86.11
73063;BME280;61230;46.328;19.972;2023-04-19T04:47:40;100381.19;;;10.02;85.69
73063;BME280;61230;46.328;19.972;2023-04-19T04:50:09;100379.56;;;10.01;85.48
73063;BME280;61230;46.328;19.972;2023-04-19T04:52:37;100371.78;;;10.00;85.51
73063;BME280;61230;46.328;19.972;2023-04-19T04:55:06;100376.50;;;10.06;85.46
73063;BME280;61230;46.328;19.972;2023-04-19T04:57:34;100379.69;;;10.09;86.36
73063;BME280;61230;46.328;19.972;2023-04-19T05:00:03;100383.00;;;10.11;85.46
73063;BME280;61230;46.328;19.972;2023-04-19T05:02:33;100379.41;;;10.12;85.58
73063;BME280;61230;46.328;19.972;2023-04-19T05:05:01;100379.84;;;10.17;85.86
73063;BME280;61230;46.328;19.972;2023-04-19T05:07:29;100370.84;;;10.20;85.36
73063;BME280;61230;46.328;19.972;2023-04-19T05:09:58;100374.72;;;10.25;85.12
73063;BME280;61230;46.328;19.972;2023-04-19T05:12:27;100377.09;;;10.28;85.36
73063;BME280;61230;46.328;19.972;2023-04-19T05:14:55;100368.78;;;10.33;84.89
73063;BME280;61230;46.328;19.972;2023-04-19T05:17:23;100374.72;;;10.35;84.94
73063;BME280;61230;46.328;19.972;2023-04-19T05:19:51;100368.34;;;10.37;84.66
73063;BME280;61230;46.328;19.972;2023-04-19T05:22:19;100376.81;;;10.41;85.24
73063;BME280;61230;46.328;19.972;2023-04-19T05:24:47;100347.19;;;10.29;84.40
73063;BME280;61230;46.328;19.972;2023-04-19T05:27:16;100365.16;;;10.44;85.00
73063;BME280;61230;46.328;19.972;2023-04-19T05:29:44;100377.59;;;10.51;84.60
73063;BME280;61230;46.328;19.972;2023-04-19T05:32:12;100370.97;;;10.47;nan
73063;BME280;61230;46.328;19.972;2023-04-19T05:34:41;100367.75;;;10.53;84.84
73063;BME280;61230;46.328;19.972;2023-04-19T05:37:10;100361.81;;;10.51;84.11
73063;BME280;61230;46.328;19.972;2023-04-19T05:39:38;100373.84;;;10.54;83.98
73063;BME280;61230;46.328;19.972;2023-04-19T05:42:09;100372.22;;;10.53;84.80
73063;BME280;61230;46.328;19.972;2023-04-19T05:44:36;100369.03;;;10.49;84.96
73063;BME280;61230;46.328;19.972;2023-04-19T05:47:04;100364.03;;;10.56;84.93
73063;BME280;61230;46.328;19.972;2023-04-19T05:49:33;100373.41;;;10.68;84.79
73063;BME280;61230;46.328;19.972;2023-04-19T05:52:01;100373.41;;;10.68;84.12
73063;BME280;61230;46.328;19.972;2023-04-19T05:54:30;100373.00;;;10.72;84.32
73063;BME280;61230;46.328;19.972;2023-04-19T05:57:03;100370.22;;;10.74;84.40
73063;BME280;61230;46.328;19.972;2023-04-19T05:59:31;100330.75;;;10.64;84.01
73063;BME280;61230;46.328;19.972;2023-04-19T06:01:58;100364.19;;;10.91;83.97
73063;BME280;61230;46.328;19.972;2023-04-19T06:04:28;100368.63;;;10.90;84.71
73063;BME280;61230;46.328;19.972;2023-04-19T06:06:56;100364.19;;;10.91;84.76
73063;BME280;61230;46.328;19.972;2023-04-19T06:09:24;100367.66;;;11.01;84.24
73063;BME280;61230;46.328;19.972;2023-04-19T06:11:52;100366.06;;;11.08;85.12
73063;BME280;61230;46.328;19.972;2023-04-19T06:14:21;100364.66;;;11.14;84.31
73063;BME280;61230;46.328;19.972;2023-04-19T06:16:49;100370.88;;;11.22;84.14
73063;BME280;61230;46.328;19.972;2023-04-19T06:19:17;100359.37;;;11.23;83.80
73063;BME280;61230;46.328;19.972;2023-04-19T06:21:45;100356.31;;;11.45;83.52
73063;BME280;61230;46.328;19.972;2023-04-19T06:24:13;100361.84;;;11.52;81.75
73063;BME280;61230;46.328;19.972;2023-04-19T06:26:42;100316.94;;;11.26;82.24
73063;BME280;61230;46.328;19.972;2023-04-19T06:29:09;100370.03;;;11.67;81.48
73063;BME280;61230;46.328;19.972;2023-04-19T06:31:37;100366.56;;;11.76;82.05
73063;BME280;61230;46.328;19.972;2023-04-19T06:34:05;100367.28;;;11.68;81.72
73063;BME280;61230;46.328;19.972;2023-04-19T06:36:33;100363.72;;;11.60;80.80
73063;BME280;61230;46.328;19.972;2023-04-19T06:39:00;100365.87;;;11.74;80.90
73063;BME280;61230;46.328;19.972;2023-04-19T06:41:28;100367.00;;;11.71;80.75
73063;BME280;61230;46.328;19.972;2023-04-19T06:43:56;100372.66;;;11.76;79.26
73063;BME280;61230;46.328;19.972;2023-04-19T06:46:23;100371.19;;;11.91;79.75
73063;BME280;61230;46.328;19.972;2023-04-19T06:48:52;100379.37;;;11.88;79.74
73063;BME280;61230;46.328;19.972;2023-04-19T06:51:19;100370.56;;;11.97;79.79
73063;BME280;61230;46.328;19.972;2023-04-19T06:53:49;100376.59;;;12.07;79.05
73063;BME280;61230;46.328;19.972;2023-04-19T06:56:38;100376.22;;;12.20;79.75
73063;BME280;61230;46.328;19.972;2023-04-19T06:59:06;100374.69;;;12.18;77.45
73063;BME280;61230;46.328;19.972;2023-04-19T07:01:35;100378.69;;;12.22;77.22
73063;BME280;61230;46.328;19.972;2023-04-19T07:04:03;100378.38;;;12.25;76.04
73063;BME280;61230;46.328;19.972;2023-04-19T07:06:31;100379.59;;;12.30;75.02
73063;BME280;61230;46.328;19.972;2023-04-19T07:08:59;100388.47;;;12.47;75.55
73063;BME280;61230;46.328;19.972;2023-04-19T07:11:27;100379.97;;;12.61;74.05
73063;BME280;61230;46.328;19.972;2023-04-19T07:13:55;100375.94;;;12.75;73.02
73063;BME280;61230;46.328;19.972;2023-04-19T07:16:23;100382.56;;;12.79;73.27
73063;BME280;61230;46.328;19.972;2023-04-19T07:18:52;100380.16;;;12.85;73.16
73063;BME280;61230;46.328;19.972;2023-04-19T07:21:19;100375.53;;;13.13;72.84
73063;BME280;61230;46.328;19.972;2023-04-19T07:23:47;100382.81;;;13.11;71.73
73063;BME280;61230;46.328;19.972;2023-04-19T07:26:15;100377.34;;;13.12;73.19
73063;BME280;61230;46.328;19.972;2023-04-19T07:28:43;100375.50;;;13.47;72.53
73063;BME280;61230;46.328;19.972;2023-04-19T07:31:15;100375.16;;;13.42;72.38
73063;BME280;61230;46.328;19.972;2023-04-19T07:33:43;100378.50;;;13.60;72.18
73063;BME280;61230;46.328;19.972;2023-04-19T07:36:11;100378.38;;;13.69;72.39
73063;BME280;61230;46.328;19.972;2023-04-19T07:38:39;100379.56;;;13.83;72.02
73063;BME280;61230;46.328;19.972;2023-04-19T07:41:07;100380.41;;;14.00;73.22
73063;BME280;61230;46.328;19.972;2023-04-19T07:43:36;100330.47;;;13.72;70.88
73063;BME280;61230;46.328;19.972;2023-04-19T07:46:10;100340.22;;;13.80;69.28
73063;BME280;61230;46.328;19.972;2023-04-19T07:48:38;100377.81;;;14.24;65.72
73063;BME280;61230;46.328;19.972;2023-04-19T07:51:10;100337.62;;;14.36;66.94
73063;BME280;61230;46.328;19.972;2023-04-19T07:53:40;100385.25;;;14.45;63.35
73063;BME280;61230;46.328;19.972;2023-04-19T07:56:14;100391.19;;;14.22;63.98
73063;BME280;61230;46.328;19.972;2023-04-19T07:58:42;100380.94;;;14.19;63.72
73063;BME280;61230;46.328;19.972;2023-04-19T08:01:13;100369.66;;;14.74;64.03
73063;BME280;61230;46.328;19.972;2023-04-19T08:03:40;100341.59;;;14.41;64.65
73063;BME280;61230;46.328;19.972;2023-04-19T08:06:09;100373.97;;;15.30;64.87
73063;BME280;61230;46.328;19.972;2023-04-19T08:08:37;100369.69;;;15.29;63.76
73063;BME280;61230;46.328;19.972;2023-04-19T08:11:05;100375.63;;;15.31;62.27
73063;BME280;61230;46.328;19.972;2023-04-19T08:13:33;100371.69;;;15.19;62.56
73063;BME280;61230;46.328;19.972;2023-04-19T08:16:01;100386.34;;;14.98;61.46
73063;BME280;61230;46.328;19.972;2023-04-19T08:18:32;100381.31;;;15.20;58.74
73063;BME280;61230;46.328;19.972;2023-04-19T08:21:00;100377.44;;;15.30;61.12
73063;BME280;61230;46.328;19.972;2023-04-19T08:23:28;100381.03;;;15.45;60.69
73063;BME280;61230;46.328;19.972;2023-04-19T08:26:08;100387.84;;;15.01;59.79
73063;BME280;61230;46.328;19.972;2023-04-19T08:28:35;100376.84;;;15.20;56.54
73063;BME280;61230;46.328;19.972;2023-04-19T08:31:05;100377.91;;;15.42;56.80
73063;BME280;61230;46.328;19.972;2023-04-19T08:33:37;100381.47;;;15.26;58.60
73063;BME280;61230;46.328;19.972;2023-04-19T08:36:04;100371.69;;;15.66;59.10
73063;BME280;61230;46.328;19.972;2023-04-19T08:38:32;100372.69;;;15.65;57.14
73063;BME280;61230;46.328;19.972;2023-04-19T08:41:00;100377.06;;;15.41;57.34
73063;BME280;61230;46.328;19.972;2023-04-19T08:43:29;100380.13;;;15.22;56.70
73063;BME280;61230;46.328;19.972;2023-04-19T08:46:00;100381.56;;;15.33;54.97
73063;BME280;61230;46.328;19.972;2023-04-19T08:48:30;100373.88;;;15.15;56.97
73063;BME280;61230;46.328;19.972;2023-04-19T08:51:01;100372.41;;;15.05;58.71
73063;BME280;61230;46.328;19.972;2023-04-19T08:53:33;100376.03;;;15.12;60.70
73063;BME280;61230;46.328;19.972;2023-04-19T08:56:02;100376.16;;;15.26;60.39
73063;BME280;61230;46.328;19.972;2023-04-19T08:58:50;100338.41;;;15.16;59.97
73063;BME280;61230;46.328;19.972;2023-04-19T09:01:39;100359.84;;;15.07;56.69
73063;BME280;61230;46.328;19.972;2023-04-19T09:04:10;100379.87;;;14.93;57.65
73063;BME280;61230;46.328;19.972;2023-04-19T09:06:58;100383.37;;;14.93;58.88
73063;BME280;61230;46.328;19.972;2023-04-19T09:09:28;100392.00;;;14.95;59.28
73063;BME280;61230;46.328;19.972;2023-04-19T09:12:16;100378.69;;;15.12;59.80
73063;BME280;61230;46.328;19.972;2023-04-19T09:14:46;100382.13;;;15.20;59.28
73063;BME280;61230;46.328;19.972;2023-04-19T09:17:29;100379.34;;;15.14;57.79
73063;BME280;61230;46.328;19.972;2023-04-19T09:19:58;100341.03;;;14.77;58.21
73063;BME280;61230;46.328;19.972;2023-04-19T09:22:25;100381.88;;;14.91;58.29
73063;BME280;61230;46.328;19.972;2023-04-19T09:24:53;100379.47;;;15.28;58.57
73063;BME280;61230;46.328;19.972;2023-04-19T09:27:32;100370.00;;;15.34;57.18
73063;BME280;61230;46.328;19.972;2023-04-19T09:30:01;100325.94;;;15.25;57.88
73063;BME280;61230;46.328;19.972;2023-04-19T09:32:45;100372.28;;;15.76;56.32
73063;BME280;61230;46.328;19.972;2023-04-19T09:35:13;100350.62;;;15.95;55.98
73063;BME280;61230;46.328;19.972;2023-04-19T09:37:41;100322.75;;;15.37;57.23
73063;BME280;61230;46.328;19.972;2023-04-19T09:40:24;100364.88;;;16.17;56.57
73063;BME280;61230;46.328;19.972;2023-04-19T09:42:53;100365.22;;;15.91;54.67
73063;BME280;61230;46.328;19.972;2023-04-19T09:45:26;100369.41;;;16.08;54.53
73063;BME280;61230;46.328;19.972;2023-04-19T09:48:02;100355.25;;;16.16;53.27
73063;BME280;61230;46.328;19.972;2023-04-19T09:50:30;100369.06;;;16.71;53.21
73063;BME280;61230;46.328;19.972;2023-04-19T09:53:01;100365.81;;;16.01;50.89
73063;BME280;61230;46.328;19.972;2023-04-19T09:55:29;100360.53;;;16.61;51.26
73063;BME280;61230;46.328;19.972;2023-04-19T09:58:11;100361.56;;;16.37;49.42
73063;BME280;61230;46.328;19.972;2023-04-19T10:00:40;100368.66;;;16.22;49.95
73063;BME280;61230;46.328;19.972;2023-04-19T10:03:18;100359.19;;;16.80;48.48
73063;BME280;61230;46.328;19.972;2023-04-19T10:05:47;100357.69;;;17.36;50.80
73063;BME280;61230;46.328;19.972;2023-04-19T10:08:16;100363.72;;;17.44;50.55
73063;BME280;61230;46.328;19.972;2023-04-19T10:10:45;100347.16;;;16.54;50.42
73063;BME280;61230;46.328;19.972;2023-04-19T10:13:17;100349.25;;;16.59;52.05
73063;BME280;61230;46.328;19.972;2023-04-19T10:15:53;100362.09;;;16.70;50.86
73063;BME280;61230;46.328;19.972;2023-04-19T10:18:31;100350.47;;;15.88;51.31
73063;BME280;61230;46.328;19.972;2023-04-19T10:21:03;100358.81;;;16.08;53.19
73063;BME280;61230;46.328;19.972;2023-04-19T10:23:33;100354.50;;;16.44;52.47
73063;BME280;61230;46.328;19.972;2023-04-19T10:26:01;100299.13;;;16.19;52.66
73063;BME280;61230;46.328;19.972;2023-04-19T10:28:29;100340.56;;;16.28;51.99
73063;BME280;61230;46.328;19.972;2023-04-19T10:31:02;100343.75;;;16.60;52.81
73063;BME280;61230;46.328;19.972;2023-04-19T10:33:33;100338.50;;;16.52;52.52
73063;BME280;61230;46.328;19.972;2023-04-19T10:36:02;100330.41;;;16.98;51.96
73063;BME280;61230;46.328;19.972;2023-04-19T10:38:44;100328.53;;;17.28;53.21
73063;BME280;61230;46.328;19.972;2023-04-19T10:41:19;100330.25;;;17.35;51.41
73063;BME280;61230;46.328;19.972;2023-04-19T10:44:08;100323.88;;;17.00;55.22
73063;BME280;61230;46.328;19.972;2023-04-19T10:46:38;100322.00;;;16.42;53.05
73063;BME280;61230;46.328;19.972;2023-04-19T10:49:07;100314.81;;;17.09;51.52
73063;BME280;61230;46.328;19.972;2023-04-19T10:51:38;100316.00;;;17.07;47.71
73063;BME280;61230;46.328;19.972;2023-04-19T10:57:04;100316.00;;;17.07;48.35
73063;BME280;61230;46.328;19.972;2023-04-19T10:59:39;100311.41;;;16.72;48.48
73063;BME280;61230;46.328;19.972;2023-04-19T11:07:18;100307.12;;;17.00;47.82
73063;BME280;61230;46.328;19.972;2023-04-19T11:09:48;100306.91;;;17.31;48.15
73063;BME280;61230;46.328;19.972;2023-04-19T11:12:20;100301.09;;;16.91;48.85
73063;BME280;61230;46.328;19.972;2023-04-19T11:14:52;100298.50;;;16.98;49.22
73063;BME280;61230;46.328;19.972;2023-04-19T11:17:25;100260.38;;;17.05;50.69
73063;BME280;61230;46.328;19.972;2023-04-19T11:19:58;100292.56;;;17.32;49.17
73063;BME280;61230;46.328;19.972;2023-04-19T11:22:31;100253.53;;;17.17;50.19
73063;BME280;61230;46.328;19.972;2023-04-19T11:27:33;100301.97;;;17.49;50.83
73063;BME280;61230;46.328;19.972;2023-04-19T11:30:07;100296.56;;;17.57;50.40
73063;BME280;61230;46.328;19.972;2023-04-19T11:32:36;100286.25;;;17.90;52.17
73063;BME280;61230;46.328;19.972;2023-04-19T11:35:08;100292.97;;;18.34;47.81
73063;BME280;61230;46.328;19.972;2023-04-19T11:37:37;100292.19;;;18.13;48.86
73063;BME280;61230;46.328;19.972;2023-04-19T11:40:06;100297.53;;;18.13;49.18
73063;BME280;61230;46.328;19.972;2023-04-19T11:42:35;100291.69;;;18.03;48.55
73063;BME280;61230;46.328;19.972;2023-04-19T11:45:03;100291.50;;;17.83;49.82
73063;BME280;61230;46.328;19.972;2023-04-19T11:47:46;100286.75;;;17.21;50.63
73063;BME280;61230;46.328;19.972;2023-04-19T11:52:58;100281.25;;;16.50;53.09
73063;BME280;61230;46.328;19.972;2023-04-19T11:55:25;100290.41;;;16.47;54.09
73063;BME280;61230;46.328;19.972;2023-04-19T11:57:53;100286.56;;;16.50;53.69
73063;BME280;61230;46.328;19.972;2023-04-19T12:00:26;100292.44;;;16.45;55.12
73063;BME280;61230;46.328;19.972;2023-04-19T12:02:55;100297.75;;;16.45;54.30
73063;BME280;61230;46.328;19.972;2023-04-19T12:05:23;100295.22;;;16.29;56.00
73063;BME280;61230;46.328;19.972;2023-04-19T12:08:04;100294.50;;;16.35;55.45
73063;BME280;61230;46.328;19.972;2023-04-19T12:10:33;100288.19;;;16.36;55.68
73063;BME280;61230;46.328;19.972;2023-04-19T12:13:16;100289.66;;;16.39;55.27
73063;BME280;61230;46.328;19.972;2023-04-19T12:15:45;100292.94;;;16.41;54.29
73063;BME280;61230;46.328;19.972;2023-04-19T12:18:12;100286.41;;;16.51;53.55
73063;BME280;61230;46.328;19.972;2023-04-19T12:20:48;100247.97;;;16.25;52.84
73063;BME280;61230;46.328;19.972;2023-04-19T12:23:17;100282.22;;;16.57;53.18
73063;BME280;61230;46.328;19.972;2023-04-19T12:25:47;100280.09;;;16.82;53.63
73063;BME280;61230;46.328;19.972;2023-04-19T12:28:15;100280.91;;;16.97;52.37
73063;BME280;61230;46.328;19.972;2023-04-19T12:30:43;100272.59;;;16.85;52.36
73063;BME280;61230;46.328;19.972;2023-04-19T12:33:11;100277.87;;;17.00;52.49
73063;BME280;61230;46.328;19.972;2023-04-19T12:35:38;100276.06;;;16.86;52.04
73063;BME280;61230;46.328;19.972;2023-04-19T12:38:07;100259.91;;;17.02;51.87
73063;BME280;61230;46.328;19.972;2023-04-19T12:40:35;100266.78;;;16.96;52.04
73063;BME280;61230;46.328;19.972;2023-04-19T12:43:05;100265.22;;;17.02;50.76
73063;BME280;61230;46.328;19.972;2023-04-19T12:45:34;100260.31;;;17.20;50.97
73063;BME280;61230;46.328;19.972;2023-04-19T12:48:03;100271.16;;;17.54;50.03
73063;BME280;61230;46.328;19.972;2023-04-19T12:50:31;100225.66;;;17.28;49.99
73063;BME280;61230;46.328;19.972;2023-04-19T12:52:59;100269.53;;;17.39;50.87
73063;BME280;61230;46.328;19.972;2023-04-19T12:55:27;100272.31;;;17.31;51.79
73063;BME280;61230;46.328;19.972;2023-04-19T12:57:54;100276.69;;;16.58;55.34
73063;BME280;61230;46.328;19.972;2023-04-19T13:00:23;100269.94;;;16.56;56.58
73063;BME280;61230;46.328;19.972;2023-04-19T13:02:50;100274.41;;;16.18;58.59
73063;BME280;61230;46.328;19.972;2023-04-19T13:05:18;100279.75;;;16.33;58.93
73063;BME280;61230;46.328;19.972;2023-04-19T13:07:47;100272.19;;;16.07;59.87